Station Historical Data
Daily Summary for July 28, 2017 Units:  Both    English   Metric
« Previous Day
Next Day »
Daily Weekly Monthly Yearly Custom
  High: Low: Average:
Temperature: 74.9 °F /  23.8 °C 59.2 °F /  15.1 °C 68 °F /  20 °C
Dew Point: 66.1 °F /  18.9 °C 50.5 °F /  10.3 °C 59.1 °F /  15.1 °C
Humidity: 87% 54% 74%
Wind Speed: 13.0mph /  20.9km/h - 3.8mph /  6.1km/h
Wind Gust: 19.0mph /  30.6km/h - -
Wind- - ENE
Pressure: 29.95 in /  1014.1 hPa 29.87 in /  1011.4 hPa -
Precipitation: 0.00 in /  0 mm    
Historical Graphs
 
 
Tabular Data for July 28, 2017
Time Temperature Dew Point Pressure Wind Wind Speed Wind Gust Humidity Rainfall Rate (Hourly)
00:04 71.9 °F /  22.2 °C 66.1 °F /  18.9 °C 29.88in /  1011.7hPa Calm   4.0mph /  6.4km/h 82% 0.00in /  0mm
00:09 71.8 °F /  22.1 °C 66.0 °F /  18.9 °C 29.88in /  1011.7hPa NNW 1.0mph /  1.6km/h 4.0mph /  6.4km/h 82% 0.00in /  0mm
00:14 71.7 °F /  22.1 °C 65.6 °F /  18.7 °C 29.88in /  1011.7hPa NNW 2.0mph /  3.2km/h 5.0mph /  8km/h 81% 0.00in /  0mm
00:19 71.5 °F /  21.9 °C 65.7 °F /  18.7 °C 29.88in /  1011.7hPa North 3.0mph /  4.8km/h 3.0mph /  4.8km/h 82% 0.00in /  0mm
00:24 71.3 °F /  21.8 °C 65.5 °F /  18.6 °C 29.88in /  1011.7hPa Calm   3.0mph /  4.8km/h 82% 0.00in /  0mm
00:29 71.1 °F /  21.7 °C 65.3 °F /  18.5 °C 29.88in /  1011.7hPa Calm   3.0mph /  4.8km/h 82% 0.00in /  0mm
00:34 70.9 °F /  21.6 °C 65.1 °F /  18.4 °C 29.88in /  1011.7hPa NNW 4.0mph /  6.4km/h 6.0mph /  9.7km/h 82% 0.00in /  0mm
00:39 70.6 °F /  21.4 °C 64.8 °F /  18.2 °C 29.88in /  1011.7hPa NNW 2.0mph /  3.2km/h 6.0mph /  9.7km/h 82% 0.00in /  0mm
00:44 70.4 °F /  21.3 °C 65.0 °F /  18.3 °C 29.88in /  1011.7hPa North 2.0mph /  3.2km/h 6.0mph /  9.7km/h 83% 0.00in /  0mm
00:49 70.1 °F /  21.2 °C 64.7 °F /  18.2 °C 29.88in /  1011.7hPa NNW 1.0mph /  1.6km/h 6.0mph /  9.7km/h 83% 0.00in /  0mm
00:55 70.0 °F /  21.1 °C 64.6 °F /  18.1 °C 29.88in /  1011.7hPa NNW 1.0mph /  1.6km/h 5.0mph /  8km/h 83% 0.00in /  0mm
00:59 69.8 °F /  21 °C 64.4 °F /  18 °C 29.88in /  1011.7hPa Calm   2.0mph /  3.2km/h 83% 0.00in /  0mm
01:04 69.6 °F /  20.9 °C 64.2 °F /  17.9 °C 29.88in /  1011.7hPa Calm   3.0mph /  4.8km/h 83% 0.00in /  0mm
01:09 69.5 °F /  20.8 °C 64.5 °F /  18.1 °C 29.88in /  1011.7hPa NNW 1.0mph /  1.6km/h 4.0mph /  6.4km/h 84% 0.00in /  0mm
01:14 69.5 °F /  20.8 °C 64.5 °F /  18.1 °C 29.88in /  1011.7hPa Calm   3.0mph /  4.8km/h 84% 0.00in /  0mm
01:19 69.5 °F /  20.8 °C 64.5 °F /  18.1 °C 29.88in /  1011.7hPa Calm   2.0mph /  3.2km/h 84% 0.00in /  0mm
01:24 69.6 °F /  20.9 °C 64.5 °F /  18.1 °C 29.88in /  1011.7hPa Calm   2.0mph /  3.2km/h 84% 0.00in /  0mm
01:29 69.6 °F /  20.9 °C 64.5 °F /  18.1 °C 29.88in /  1011.7hPa NNE 1.0mph /  1.6km/h 2.0mph /  3.2km/h 84% 0.00in /  0mm
01:34 69.6 °F /  20.9 °C 64.5 °F /  18.1 °C 29.88in /  1011.7hPa NNE 1.0mph /  1.6km/h 3.0mph /  4.8km/h 84% 0.00in /  0mm
01:39 69.5 °F /  20.8 °C 64.5 °F /  18.1 °C 29.88in /  1011.7hPa NNE 1.0mph /  1.6km/h 3.0mph /  4.8km/h 84% 0.00in /  0mm
01:44 69.4 °F /  20.8 °C 64.4 °F /  18 °C 29.87in /  1011.4hPa NNE 1.0mph /  1.6km/h 3.0mph /  4.8km/h 84% 0.00in /  0mm
01:49 69.2 °F /  20.7 °C 64.2 °F /  17.9 °C 29.88in /  1011.7hPa NNE 1.0mph /  1.6km/h 3.0mph /  4.8km/h 84% 0.00in /  0mm
01:54 69.1 °F /  20.6 °C 64.1 °F /  17.8 °C 29.88in /  1011.7hPa NNW 2.0mph /  3.2km/h 3.0mph /  4.8km/h 84% 0.00in /  0mm
01:59 69.0 °F /  20.6 °C 64.0 °F /  17.8 °C 29.88in /  1011.7hPa East 1.0mph /  1.6km/h 3.0mph /  4.8km/h 84% 0.00in /  0mm
02:04 68.9 °F /  20.5 °C 63.9 °F /  17.7 °C 29.88in /  1011.7hPa North 1.0mph /  1.6km/h 3.0mph /  4.8km/h 84% 0.00in /  0mm
02:09 68.9 °F /  20.5 °C 63.9 °F /  17.7 °C 29.88in /  1011.7hPa NNE 1.0mph /  1.6km/h 3.0mph /  4.8km/h 84% 0.00in /  0mm
02:14 68.7 °F /  20.4 °C 63.7 °F /  17.6 °C 29.88in /  1011.7hPa NNE 1.0mph /  1.6km/h 4.0mph /  6.4km/h 84% 0.00in /  0mm
02:19 68.4 °F /  20.2 °C 63.4 °F /  17.4 °C 29.87in /  1011.4hPa Calm   5.0mph /  8km/h 84% 0.00in /  0mm
02:24 68.3 °F /  20.2 °C 63.3 °F /  17.4 °C 29.87in /  1011.4hPa Calm   3.0mph /  4.8km/h 84% 0.00in /  0mm
02:29 68.2 °F /  20.1 °C 63.2 °F /  17.3 °C 29.88in /  1011.7hPa NNE 1.0mph /  1.6km/h 10.0mph /  16.1km/h 84% 0.00in /  0mm
02:34 68.1 °F /  20.1 °C 62.7 °F /  17.1 °C 29.87in /  1011.4hPa NE 3.0mph /  4.8km/h 7.0mph /  11.3km/h 83% 0.00in /  0mm
02:39 68.0 °F /  20 °C 62.6 °F /  17 °C 29.87in /  1011.4hPa NE 2.0mph /  3.2km/h 7.0mph /  11.3km/h 83% 0.00in /  0mm
02:44 67.9 °F /  19.9 °C 62.5 °F /  16.9 °C 29.87in /  1011.4hPa ENE 5.0mph /  8km/h 8.0mph /  12.9km/h 83% 0.00in /  0mm
02:49 67.9 °F /  19.9 °C 62.5 °F /  16.9 °C 29.88in /  1011.7hPa NE 4.0mph /  6.4km/h 9.0mph /  14.5km/h 83% 0.00in /  0mm
02:54 67.7 °F /  19.8 °C 62.3 °F /  16.8 °C 29.88in /  1011.7hPa NE 4.0mph /  6.4km/h 13.0mph /  20.9km/h 83% 0.00in /  0mm
02:59 67.7 °F /  19.8 °C 62.3 °F /  16.8 °C 29.87in /  1011.4hPa NE 5.0mph /  8km/h 12.0mph /  19.3km/h 83% 0.00in /  0mm
03:04 67.7 °F /  19.8 °C 62.3 °F /  16.8 °C 29.87in /  1011.4hPa NE 5.0mph /  8km/h 12.0mph /  19.3km/h 83% 0.00in /  0mm
03:09 67.7 °F /  19.8 °C 62.3 °F /  16.8 °C 29.87in /  1011.4hPa NE 6.0mph /  9.7km/h 11.0mph /  17.7km/h 83% 0.00in /  0mm
03:14 67.6 °F /  19.8 °C 62.3 °F /  16.8 °C 29.87in /  1011.4hPa NE 6.0mph /  9.7km/h 11.0mph /  17.7km/h 83% 0.00in /  0mm
03:20 67.4 °F /  19.7 °C 62.1 °F /  16.7 °C 29.87in /  1011.4hPa NE 5.0mph /  8km/h 10.0mph /  16.1km/h 83% 0.00in /  0mm
03:24 67.3 °F /  19.6 °C 62.0 °F /  16.7 °C 29.88in /  1011.7hPa ENE 4.0mph /  6.4km/h 9.0mph /  14.5km/h 83% 0.00in /  0mm
03:29 67.2 °F /  19.6 °C 61.9 °F /  16.6 °C 29.88in /  1011.7hPa ENE 3.0mph /  4.8km/h 9.0mph /  14.5km/h 83% 0.00in /  0mm
03:34 67.1 °F /  19.5 °C 61.8 °F /  16.6 °C 29.88in /  1011.7hPa ENE 3.0mph /  4.8km/h 9.0mph /  14.5km/h 83% 0.00in /  0mm
03:39 66.9 °F /  19.4 °C 61.6 °F /  16.4 °C 29.88in /  1011.7hPa ENE 4.0mph /  6.4km/h 9.0mph /  14.5km/h 83% 0.00in /  0mm
03:44 66.8 °F /  19.3 °C 61.5 °F /  16.4 °C 29.88in /  1011.7hPa ENE 2.0mph /  3.2km/h 8.0mph /  12.9km/h 83% 0.00in /  0mm
03:49 66.7 °F /  19.3 °C 61.4 °F /  16.3 °C 29.88in /  1011.7hPa ENE 3.0mph /  4.8km/h 9.0mph /  14.5km/h 83% 0.00in /  0mm
03:54 66.6 °F /  19.2 °C 61.3 °F /  16.3 °C 29.88in /  1011.7hPa NE 5.0mph /  8km/h 10.0mph /  16.1km/h 83% 0.00in /  0mm
03:59 66.6 °F /  19.2 °C 61.6 °F /  16.4 °C 29.88in /  1011.7hPa NE 4.0mph /  6.4km/h 10.0mph /  16.1km/h 84% 0.00in /  0mm
04:04 66.4 °F /  19.1 °C 61.1 °F /  16.2 °C 29.88in /  1011.7hPa NE 5.0mph /  8km/h 10.0mph /  16.1km/h 83% 0.00in /  0mm
04:09 66.4 °F /  19.1 °C 61.1 °F /  16.2 °C 29.88in /  1011.7hPa NE 5.0mph /  8km/h 11.0mph /  17.7km/h 83% 0.00in /  0mm
04:14 66.4 °F /  19.1 °C 61.4 °F /  16.3 °C 29.88in /  1011.7hPa NE 4.0mph /  6.4km/h 9.0mph /  14.5km/h 84% 0.00in /  0mm
04:19 66.3 °F /  19.1 °C 61.3 °F /  16.3 °C 29.88in /  1011.7hPa NNE 6.0mph /  9.7km/h 9.0mph /  14.5km/h 84% 0.00in /  0mm
04:24 66.2 °F /  19 °C 61.2 °F /  16.2 °C 29.88in /  1011.7hPa NE 4.0mph /  6.4km/h 9.0mph /  14.5km/h 84% 0.00in /  0mm
04:29 66.1 °F /  18.9 °C 61.1 °F /  16.2 °C 29.88in /  1011.7hPa NE 4.0mph /  6.4km/h 10.0mph /  16.1km/h 84% 0.00in /  0mm
04:34 65.9 °F /  18.8 °C 60.9 °F /  16.1 °C 29.89in /  1012.1hPa NE 4.0mph /  6.4km/h 11.0mph /  17.7km/h 84% 0.00in /  0mm
04:39 65.9 °F /  18.8 °C 60.9 °F /  16.1 °C 29.89in /  1012.1hPa ENE 3.0mph /  4.8km/h 9.0mph /  14.5km/h 84% 0.00in /  0mm
04:44 65.8 °F /  18.8 °C 60.8 °F /  16 °C 29.89in /  1012.1hPa ENE 5.0mph /  8km/h 8.0mph /  12.9km/h 84% 0.00in /  0mm
04:49 65.8 °F /  18.8 °C 60.8 °F /  16 °C 29.89in /  1012.1hPa ENE 1.0mph /  1.6km/h 9.0mph /  14.5km/h 84% 0.00in /  0mm
04:54 65.7 °F /  18.7 °C 60.7 °F /  15.9 °C 29.89in /  1012.1hPa ENE 3.0mph /  4.8km/h 9.0mph /  14.5km/h 84% 0.00in /  0mm
04:59 65.6 °F /  18.7 °C 60.6 °F /  15.9 °C 29.89in /  1012.1hPa NE 4.0mph /  6.4km/h 9.0mph /  14.5km/h 84% 0.00in /  0mm
05:04 65.5 °F /  18.6 °C 60.9 °F /  16.1 °C 29.89in /  1012.1hPa NE 3.0mph /  4.8km/h 8.0mph /  12.9km/h 85% 0.00in /  0mm
05:09 65.4 °F /  18.6 °C 60.8 °F /  16 °C 29.89in /  1012.1hPa NE 4.0mph /  6.4km/h 8.0mph /  12.9km/h 85% 0.00in /  0mm
05:14 65.3 °F /  18.5 °C 60.7 °F /  15.9 °C 29.89in /  1012.1hPa ENE 3.0mph /  4.8km/h 8.0mph /  12.9km/h 85% 0.00in /  0mm
05:19 65.1 °F /  18.4 °C 60.5 °F /  15.8 °C 29.89in /  1012.1hPa Calm   7.0mph /  11.3km/h 85% 0.00in /  0mm
05:24 64.9 °F /  18.3 °C 60.3 °F /  15.7 °C 29.89in /  1012.1hPa NE 3.0mph /  4.8km/h 10.0mph /  16.1km/h 85% 0.00in /  0mm
05:29 64.8 °F /  18.2 °C 60.5 °F /  15.8 °C 29.89in /  1012.1hPa NE 2.0mph /  3.2km/h 10.0mph /  16.1km/h 86% 0.00in /  0mm
05:34 64.8 °F /  18.2 °C 60.5 °F /  15.8 °C 29.89in /  1012.1hPa NE 3.0mph /  4.8km/h 9.0mph /  14.5km/h 86% 0.00in /  0mm
05:44 64.7 °F /  18.2 °C 60.4 °F /  15.8 °C 29.89in /  1012.1hPa NE 4.0mph /  6.4km/h 8.0mph /  12.9km/h 86% 0.00in /  0mm
05:49 64.7 °F /  18.2 °C 60.4 °F /  15.8 °C 29.89in /  1012.1hPa ENE 1.0mph /  1.6km/h 7.0mph /  11.3km/h 86% 0.00in /  0mm
05:54 64.5 °F /  18.1 °C 60.2 °F /  15.7 °C 29.90in /  1012.4hPa NE 3.0mph /  4.8km/h 7.0mph /  11.3km/h 86% 0.00in /  0mm
05:59 64.5 °F /  18.1 °C 60.2 °F /  15.7 °C 29.90in /  1012.4hPa NE 6.0mph /  9.7km/h 10.0mph /  16.1km/h 86% 0.00in /  0mm
06:04 64.5 °F /  18.1 °C 60.2 °F /  15.7 °C 29.90in /  1012.4hPa NE 1.0mph /  1.6km/h 8.0mph /  12.9km/h 86% 0.00in /  0mm
06:09 64.4 °F /  18 °C 60.1 °F /  15.6 °C 29.90in /  1012.4hPa NE 3.0mph /  4.8km/h 9.0mph /  14.5km/h 86% 0.00in /  0mm
06:14 64.4 °F /  18 °C 60.1 °F /  15.6 °C 29.90in /  1012.4hPa NE 1.0mph /  1.6km/h 5.0mph /  8km/h 86% 0.00in /  0mm
06:19 64.4 °F /  18 °C 60.1 °F /  15.6 °C 29.90in /  1012.4hPa NE 2.0mph /  3.2km/h 8.0mph /  12.9km/h 86% 0.00in /  0mm
06:24 64.4 °F /  18 °C 60.4 °F /  15.8 °C 29.90in /  1012.4hPa NE 4.0mph /  6.4km/h 9.0mph /  14.5km/h 87% 0.00in /  0mm
06:29 64.5 °F /  18.1 °C 60.5 °F /  15.8 °C 29.90in /  1012.4hPa NE 4.0mph /  6.4km/h 9.0mph /  14.5km/h 87% 0.00in /  0mm
06:34 64.4 °F /  18 °C 60.4 °F /  15.8 °C 29.90in /  1012.4hPa NE 3.0mph /  4.8km/h 8.0mph /  12.9km/h 87% 0.00in /  0mm
06:39 64.4 °F /  18 °C 60.4 °F /  15.8 °C 29.90in /  1012.4hPa NE 3.0mph /  4.8km/h 8.0mph /  12.9km/h 87% 0.00in /  0mm
06:44 64.5 °F /  18.1 °C 60.5 °F /  15.8 °C 29.90in /  1012.4hPa NE 3.0mph /  4.8km/h 10.0mph /  16.1km/h 87% 0.00in /  0mm
06:49 64.5 °F /  18.1 °C 60.5 °F /  15.8 °C 29.90in /  1012.4hPa NE 2.0mph /  3.2km/h 9.0mph /  14.5km/h 87% 0.00in /  0mm
06:54 64.5 °F /  18.1 °C 60.5 °F /  15.8 °C 29.90in /  1012.4hPa NE 2.0mph /  3.2km/h 9.0mph /  14.5km/h 87% 0.00in /  0mm
06:59 64.5 °F /  18.1 °C 60.5 °F /  15.8 °C 29.90in /  1012.4hPa NE 2.0mph /  3.2km/h 6.0mph /  9.7km/h 87% 0.00in /  0mm
07:04 64.5 °F /  18.1 °C 60.5 °F /  15.8 °C 29.90in /  1012.4hPa NE 4.0mph /  6.4km/h 9.0mph /  14.5km/h 87% 0.00in /  0mm
07:09 64.7 °F /  18.2 °C 60.7 °F /  15.9 °C 29.91in /  1012.8hPa ENE 3.0mph /  4.8km/h 7.0mph /  11.3km/h 87% 0.00in /  0mm
07:14 64.8 °F /  18.2 °C 60.8 °F /  16 °C 29.91in /  1012.8hPa NE 2.0mph /  3.2km/h 8.0mph /  12.9km/h 87% 0.00in /  0mm
07:19 65.0 °F /  18.3 °C 61.0 °F /  16.1 °C 29.91in /  1012.8hPa ENE 3.0mph /  4.8km/h 9.0mph /  14.5km/h 87% 0.00in /  0mm
07:24 65.0 °F /  18.3 °C 61.0 °F /  16.1 °C 29.91in /  1012.8hPa NE 4.0mph /  6.4km/h 9.0mph /  14.5km/h 87% 0.00in /  0mm
07:29 65.2 °F /  18.4 °C 61.2 °F /  16.2 °C 29.91in /  1012.8hPa NE 4.0mph /  6.4km/h 9.0mph /  14.5km/h 87% 0.00in /  0mm
07:34 65.4 °F /  18.6 °C 61.1 °F /  16.2 °C 29.91in /  1012.8hPa NE 4.0mph /  6.4km/h 10.0mph /  16.1km/h 86% 0.00in /  0mm
07:39 65.6 °F /  18.7 °C 61.3 °F /  16.3 °C 29.91in /  1012.8hPa ENE 5.0mph /  8km/h 10.0mph /  16.1km/h 86% 0.00in /  0mm
07:44 65.7 °F /  18.7 °C 61.1 °F /  16.2 °C 29.91in /  1012.8hPa ENE 3.0mph /  4.8km/h 9.0mph /  14.5km/h 85% 0.00in /  0mm
07:49 65.8 °F /  18.8 °C 61.2 °F /  16.2 °C 29.91in /  1012.8hPa NE 7.0mph /  11.3km/h 11.0mph /  17.7km/h 85% 0.00in /  0mm
07:54 65.9 °F /  18.8 °C 60.9 °F /  16.1 °C 29.92in /  1013.1hPa NE 5.0mph /  8km/h 13.0mph /  20.9km/h 84% 0.00in /  0mm
07:59 66.2 °F /  19 °C 61.2 °F /  16.2 °C 29.92in /  1013.1hPa NE 8.0mph /  12.9km/h 9.0mph /  14.5km/h 84% 0.00in /  0mm
08:04 66.3 °F /  19.1 °C 61.3 °F /  16.3 °C 29.92in /  1013.1hPa NE 7.0mph /  11.3km/h 10.0mph /  16.1km/h 84% 0.00in /  0mm
08:09 66.5 °F /  19.2 °C 61.2 °F /  16.2 °C 29.92in /  1013.1hPa NE 4.0mph /  6.4km/h 9.0mph /  14.5km/h 83% 0.00in /  0mm
08:14 66.6 °F /  19.2 °C 61.3 °F /  16.3 °C 29.92in /  1013.1hPa NE 6.0mph /  9.7km/h 11.0mph /  17.7km/h 83% 0.00in /  0mm
08:19 66.8 °F /  19.3 °C 61.5 °F /  16.4 °C 29.92in /  1013.1hPa NE 6.0mph /  9.7km/h 12.0mph /  19.3km/h 83% 0.00in /  0mm
08:24 66.9 °F /  19.4 °C 61.6 °F /  16.4 °C 29.92in /  1013.1hPa NE 6.0mph /  9.7km/h 12.0mph /  19.3km/h 83% 0.00in /  0mm
08:29 66.9 °F /  19.4 °C 61.2 °F /  16.2 °C 29.92in /  1013.1hPa NE 6.0mph /  9.7km/h 12.0mph /  19.3km/h 82% 0.00in /  0mm
08:34 67.0 °F /  19.4 °C 61.3 °F /  16.3 °C 29.92in /  1013.1hPa East 5.0mph /  8km/h 13.0mph /  20.9km/h 82% 0.00in /  0mm
08:44 67.5 °F /  19.7 °C 62.2 °F /  16.8 °C 29.92in /  1013.1hPa ENE 4.0mph /  6.4km/h 8.0mph /  12.9km/h 83% 0.00in /  0mm
08:49 67.7 °F /  19.8 °C 62.0 °F /  16.7 °C 29.93in /  1013.4hPa ENE 3.0mph /  4.8km/h 10.0mph /  16.1km/h 82% 0.00in /  0mm
08:54 67.4 °F /  19.7 °C 61.7 °F /  16.5 °C 29.92in /  1013.1hPa ENE 12.0mph /  19.3km/h 15.0mph /  24.1km/h 82% 0.00in /  0mm
08:59 67.3 °F /  19.6 °C 61.6 °F /  16.4 °C 29.92in /  1013.1hPa NE 3.0mph /  4.8km/h 15.0mph /  24.1km/h 82% 0.00in /  0mm
09:04 67.7 °F /  19.8 °C 62.0 °F /  16.7 °C 29.92in /  1013.1hPa NE 3.0mph /  4.8km/h 12.0mph /  19.3km/h 82% 0.00in /  0mm
09:09 67.9 °F /  19.9 °C 61.9 °F /  16.6 °C 29.92in /  1013.1hPa ENE 6.0mph /  9.7km/h 12.0mph /  19.3km/h 81% 0.00in /  0mm
09:14 68.1 °F /  20.1 °C 62.0 °F /  16.7 °C 29.92in /  1013.1hPa NE 8.0mph /  12.9km/h 10.0mph /  16.1km/h 81% 0.00in /  0mm
09:19 68.0 °F /  20 °C 61.9 °F /  16.6 °C 29.92in /  1013.1hPa NE 6.0mph /  9.7km/h 12.0mph /  19.3km/h 81% 0.00in /  0mm
09:24 68.1 °F /  20.1 °C 62.0 °F /  16.7 °C 29.92in /  1013.1hPa NE 4.0mph /  6.4km/h 13.0mph /  20.9km/h 81% 0.00in /  0mm
09:29 68.3 °F /  20.2 °C 61.9 °F /  16.6 °C 29.92in /  1013.1hPa ENE 12.0mph /  19.3km/h 12.0mph /  19.3km/h 80% 0.00in /  0mm
09:34 68.7 °F /  20.4 °C 62.3 °F /  16.8 °C 29.92in /  1013.1hPa ENE 4.0mph /  6.4km/h 12.0mph /  19.3km/h 80% 0.00in /  0mm
09:39 69.1 °F /  20.6 °C 62.7 °F /  17.1 °C 29.92in /  1013.1hPa ENE 5.0mph /  8km/h 12.0mph /  19.3km/h 80% 0.00in /  0mm
09:44 69.2 °F /  20.7 °C 62.4 °F /  16.9 °C 29.92in /  1013.1hPa ENE 5.0mph /  8km/h 11.0mph /  17.7km/h 79% 0.00in /  0mm
09:49 69.0 °F /  20.6 °C 62.2 °F /  16.8 °C 29.92in /  1013.1hPa East 5.0mph /  8km/h 11.0mph /  17.7km/h 79% 0.00in /  0mm
09:54 69.0 °F /  20.6 °C 61.9 °F /  16.6 °C 29.92in /  1013.1hPa ENE 3.0mph /  4.8km/h 13.0mph /  20.9km/h 78% 0.00in /  0mm
09:59 69.2 °F /  20.7 °C 62.4 °F /  16.9 °C 29.92in /  1013.1hPa ENE 4.0mph /  6.4km/h 11.0mph /  17.7km/h 79% 0.00in /  0mm
10:04 69.4 °F /  20.8 °C 62.6 °F /  17 °C 29.92in /  1013.1hPa NE 5.0mph /  8km/h 11.0mph /  17.7km/h 79% 0.00in /  0mm
10:09 69.6 °F /  20.9 °C 62.4 °F /  16.9 °C 29.92in /  1013.1hPa NE 5.0mph /  8km/h 13.0mph /  20.9km/h 78% 0.00in /  0mm
10:14 69.5 °F /  20.8 °C 62.7 °F /  17.1 °C 29.93in /  1013.4hPa ENE 3.0mph /  4.8km/h 10.0mph /  16.1km/h 79% 0.00in /  0mm
10:19 69.1 °F /  20.6 °C 61.9 °F /  16.6 °C 29.93in /  1013.4hPa NE 3.0mph /  4.8km/h 12.0mph /  19.3km/h 78% 0.00in /  0mm
10:24 69.2 °F /  20.7 °C 62.0 °F /  16.7 °C 29.93in /  1013.4hPa ENE 9.0mph /  14.5km/h 13.0mph /  20.9km/h 78% 0.00in /  0mm
10:29 69.4 °F /  20.8 °C 62.2 °F /  16.8 °C 29.93in /  1013.4hPa NE 6.0mph /  9.7km/h 13.0mph /  20.9km/h 78% 0.00in /  0mm
10:39 69.3 °F /  20.7 °C 61.8 °F /  16.6 °C 29.93in /  1013.4hPa NE 6.0mph /  9.7km/h 14.0mph /  22.5km/h 77% 0.00in /  0mm
10:44 69.7 °F /  20.9 °C 62.2 °F /  16.8 °C 29.93in /  1013.4hPa NE 4.0mph /  6.4km/h 11.0mph /  17.7km/h 77% 0.00in /  0mm
10:49 70.1 °F /  21.2 °C 62.6 °F /  17 °C 29.93in /  1013.4hPa ENE 11.0mph /  17.7km/h 12.0mph /  19.3km/h 77% 0.00in /  0mm
10:54 69.8 °F /  21 °C 62.3 °F /  16.8 °C 29.93in /  1013.4hPa NE 9.0mph /  14.5km/h 11.0mph /  17.7km/h 77% 0.00in /  0mm
10:59 69.8 °F /  21 °C 62.6 °F /  17 °C 29.92in /  1013.1hPa NNE 5.0mph /  8km/h 12.0mph /  19.3km/h 78% 0.00in /  0mm
11:04 69.9 °F /  21.1 °C 62.7 °F /  17.1 °C 29.92in /  1013.1hPa NE 7.0mph /  11.3km/h 11.0mph /  17.7km/h 78% 0.00in /  0mm
11:09 69.9 °F /  21.1 °C 62.4 °F /  16.9 °C 29.92in /  1013.1hPa NE 4.0mph /  6.4km/h 9.0mph /  14.5km/h 77% 0.00in /  0mm
11:14 69.8 °F /  21 °C 62.3 °F /  16.8 °C 29.93in /  1013.4hPa ENE 9.0mph /  14.5km/h 10.0mph /  16.1km/h 77% 0.00in /  0mm
11:19 69.6 °F /  20.9 °C 62.1 °F /  16.7 °C 29.93in /  1013.4hPa NE 4.0mph /  6.4km/h 10.0mph /  16.1km/h 77% 0.00in /  0mm
11:24 69.5 °F /  20.8 °C 62.3 °F /  16.8 °C 29.93in /  1013.4hPa NE 6.0mph /  9.7km/h 9.0mph /  14.5km/h 78% 0.00in /  0mm
11:29 69.6 °F /  20.9 °C 62.4 °F /  16.9 °C 29.93in /  1013.4hPa NE 5.0mph /  8km/h 9.0mph /  14.5km/h 78% 0.00in /  0mm
11:34 70.1 °F /  21.2 °C 62.6 °F /  17 °C 29.93in /  1013.4hPa North 2.0mph /  3.2km/h 8.0mph /  12.9km/h 77% 0.00in /  0mm
11:39 70.5 °F /  21.4 °C 62.6 °F /  17 °C 29.93in /  1013.4hPa NNE 3.0mph /  4.8km/h 5.0mph /  8km/h 76% 0.00in /  0mm
11:44 70.2 °F /  21.2 °C 62.3 °F /  16.8 °C 29.93in /  1013.4hPa NNE 3.0mph /  4.8km/h 11.0mph /  17.7km/h 76% 0.00in /  0mm
11:49 70.0 °F /  21.1 °C 62.1 °F /  16.7 °C 29.93in /  1013.4hPa NE 5.0mph /  8km/h 13.0mph /  20.9km/h 76% 0.00in /  0mm
11:59 70.5 °F /  21.4 °C 62.2 °F /  16.8 °C 29.93in /  1013.4hPa North 3.0mph /  4.8km/h 8.0mph /  12.9km/h 75% 0.00in /  0mm
12:04 71.6 °F /  22 °C 62.5 °F /  16.9 °C 29.93in /  1013.4hPa NE 2.0mph /  3.2km/h 16.0mph /  25.7km/h 73% 0.00in /  0mm
12:09 72.5 °F /  22.5 °C 63.4 °F /  17.4 °C 29.93in /  1013.4hPa NE 6.0mph /  9.7km/h 16.0mph /  25.7km/h 73% 0.00in /  0mm
12:14 72.9 °F /  22.7 °C 62.9 °F /  17.2 °C 29.93in /  1013.4hPa East 3.0mph /  4.8km/h 11.0mph /  17.7km/h 71% 0.00in /  0mm
12:19 71.9 °F /  22.2 °C 61.6 °F /  16.4 °C 29.93in /  1013.4hPa NNE 4.0mph /  6.4km/h 15.0mph /  24.1km/h 70% 0.00in /  0mm
12:24 71.6 °F /  22 °C 62.5 °F /  16.9 °C 29.93in /  1013.4hPa ENE 12.0mph /  19.3km/h 12.0mph /  19.3km/h 73% 0.00in /  0mm
12:34 72.4 °F /  22.4 °C 62.9 °F /  17.2 °C 29.92in /  1013.1hPa ENE 7.0mph /  11.3km/h 15.0mph /  24.1km/h 72% 0.00in /  0mm
12:39 72.4 °F /  22.4 °C 62.5 °F /  16.9 °C 29.92in /  1013.1hPa ENE 5.0mph /  8km/h 14.0mph /  22.5km/h 71% 0.00in /  0mm
12:44 72.1 °F /  22.3 °C 62.2 °F /  16.8 °C 29.92in /  1013.1hPa ENE 5.0mph /  8km/h 13.0mph /  20.9km/h 71% 0.00in /  0mm
12:49 71.5 °F /  21.9 °C 62.0 °F /  16.7 °C 29.93in /  1013.4hPa NE 6.0mph /  9.7km/h 15.0mph /  24.1km/h 72% 0.00in /  0mm
12:54 71.6 °F /  22 °C 61.7 °F /  16.5 °C 29.93in /  1013.4hPa North 3.0mph /  4.8km/h 10.0mph /  16.1km/h 71% 0.00in /  0mm
12:59 71.4 °F /  21.9 °C 61.5 °F /  16.4 °C 29.93in /  1013.4hPa ENE 7.0mph /  11.3km/h 15.0mph /  24.1km/h 71% 0.00in /  0mm
13:04 71.3 °F /  21.8 °C 61.4 °F /  16.3 °C 29.93in /  1013.4hPa NE 5.0mph /  8km/h 10.0mph /  16.1km/h 71% 0.00in /  0mm
13:09 71.4 °F /  21.9 °C 61.5 °F /  16.4 °C 29.92in /  1013.1hPa NE 5.0mph /  8km/h 13.0mph /  20.9km/h 71% 0.00in /  0mm
13:14 71.2 °F /  21.8 °C 61.3 °F /  16.3 °C 29.92in /  1013.1hPa NNE 4.0mph /  6.4km/h 10.0mph /  16.1km/h 71% 0.00in /  0mm
13:19 71.1 °F /  21.7 °C 61.6 °F /  16.4 °C 29.92in /  1013.1hPa NE 9.0mph /  14.5km/h 14.0mph /  22.5km/h 72% 0.00in /  0mm
13:24 71.3 °F /  21.8 °C 61.4 °F /  16.3 °C 29.92in /  1013.1hPa NE 6.0mph /  9.7km/h 14.0mph /  22.5km/h 71% 0.00in /  0mm
13:29 71.7 °F /  22.1 °C 61.8 °F /  16.6 °C 29.92in /  1013.1hPa NE 5.0mph /  8km/h 12.0mph /  19.3km/h 71% 0.00in /  0mm
13:34 73.0 °F /  22.8 °C 62.6 °F /  17 °C 29.92in /  1013.1hPa ENE 9.0mph /  14.5km/h 12.0mph /  19.3km/h 70% 0.00in /  0mm
13:39 73.1 °F /  22.8 °C 62.7 °F /  17.1 °C 29.92in /  1013.1hPa NNE 3.0mph /  4.8km/h 12.0mph /  19.3km/h 70% 0.00in /  0mm
13:44 72.7 °F /  22.6 °C 62.3 °F /  16.8 °C 29.92in /  1013.1hPa ENE 8.0mph /  12.9km/h 14.0mph /  22.5km/h 70% 0.00in /  0mm
13:49 72.6 °F /  22.6 °C 61.8 °F /  16.6 °C 29.92in /  1013.1hPa NE 8.0mph /  12.9km/h 11.0mph /  17.7km/h 69% 0.00in /  0mm
13:54 74.0 °F /  23.3 °C 62.8 °F /  17.1 °C 29.92in /  1013.1hPa NE 6.0mph /  9.7km/h 15.0mph /  24.1km/h 68% 0.00in /  0mm
13:59 74.3 °F /  23.5 °C 63.1 °F /  17.3 °C 29.92in /  1013.1hPa ENE 6.0mph /  9.7km/h 15.0mph /  24.1km/h 68% 0.00in /  0mm
14:04 74.1 °F /  23.4 °C 62.4 °F /  16.9 °C 29.92in /  1013.1hPa NNE 4.0mph /  6.4km/h 12.0mph /  19.3km/h 67% 0.00in /  0mm
14:09 74.6 °F /  23.7 °C 62.1 °F /  16.7 °C 29.92in /  1013.1hPa ENE 6.0mph /  9.7km/h 15.0mph /  24.1km/h 65% 0.00in /  0mm
14:19 73.7 °F /  23.2 °C 60.8 °F /  16 °C 29.92in /  1013.1hPa NE 6.0mph /  9.7km/h 14.0mph /  22.5km/h 64% 0.00in /  0mm
14:24 74.4 °F /  23.6 °C 61.9 °F /  16.6 °C 29.91in /  1012.8hPa East 3.0mph /  4.8km/h 9.0mph /  14.5km/h 65% 0.00in /  0mm
14:29 74.6 °F /  23.7 °C 61.2 °F /  16.2 °C 29.92in /  1013.1hPa East 9.0mph /  14.5km/h 12.0mph /  19.3km/h 63% 0.00in /  0mm
14:34 74.2 °F /  23.4 °C 61.2 °F /  16.2 °C 29.92in /  1013.1hPa ENE 9.0mph /  14.5km/h 15.0mph /  24.1km/h 64% 0.00in /  0mm
14:39 74.7 °F /  23.7 °C 60.8 °F /  16 °C 29.92in /  1013.1hPa NE 4.0mph /  6.4km/h 14.0mph /  22.5km/h 62% 0.00in /  0mm
14:44 73.1 °F /  22.8 °C 60.6 °F /  15.9 °C 29.91in /  1012.8hPa NE 6.0mph /  9.7km/h 14.0mph /  22.5km/h 65% 0.00in /  0mm
14:49 73.3 °F /  22.9 °C 61.3 °F /  16.3 °C 29.92in /  1013.1hPa NE 5.0mph /  8km/h 13.0mph /  20.9km/h 66% 0.00in /  0mm
14:54 72.8 °F /  22.7 °C 60.3 °F /  15.7 °C 29.92in /  1013.1hPa NNE 4.0mph /  6.4km/h 14.0mph /  22.5km/h 65% 0.00in /  0mm
14:59 73.2 °F /  22.9 °C 60.7 °F /  15.9 °C 29.92in /  1013.1hPa ENE 3.0mph /  4.8km/h 15.0mph /  24.1km/h 65% 0.00in /  0mm
15:04 74.9 °F /  23.8 °C 62.3 °F /  16.8 °C 29.92in /  1013.1hPa NE 3.0mph /  4.8km/h 12.0mph /  19.3km/h 65% 0.00in /  0mm
15:09 74.7 °F /  23.7 °C 61.3 °F /  16.3 °C 29.91in /  1012.8hPa NE 6.0mph /  9.7km/h 12.0mph /  19.3km/h 63% 0.00in /  0mm
15:14 74.5 °F /  23.6 °C 61.5 °F /  16.4 °C 29.91in /  1012.8hPa NE 7.0mph /  11.3km/h 16.0mph /  25.7km/h 64% 0.00in /  0mm
15:19 74.9 °F /  23.8 °C 61.0 °F /  16.1 °C 29.91in /  1012.8hPa North 3.0mph /  4.8km/h 13.0mph /  20.9km/h 62% 0.00in /  0mm
15:24 74.9 °F /  23.8 °C 60.5 °F /  15.8 °C 29.91in /  1012.8hPa ENE 5.0mph /  8km/h 15.0mph /  24.1km/h 61% 0.00in /  0mm
15:29 74.6 °F /  23.7 °C 61.2 °F /  16.2 °C 29.91in /  1012.8hPa North 3.0mph /  4.8km/h 16.0mph /  25.7km/h 63% 0.00in /  0mm
15:34 73.7 °F /  23.2 °C 59.9 °F /  15.5 °C 29.91in /  1012.8hPa ENE 13.0mph /  20.9km/h 14.0mph /  22.5km/h 62% 0.00in /  0mm
15:39 73.8 °F /  23.2 °C 59.5 °F /  15.3 °C 29.91in /  1012.8hPa NNE 4.0mph /  6.4km/h 13.0mph /  20.9km/h 61% 0.00in /  0mm
15:44 73.5 °F /  23.1 °C 59.7 °F /  15.4 °C 29.91in /  1012.8hPa ENE 5.0mph /  8km/h 16.0mph /  25.7km/h 62% 0.00in /  0mm
15:49 74.0 °F /  23.3 °C 60.6 °F /  15.9 °C 29.91in /  1012.8hPa NE 7.0mph /  11.3km/h 10.0mph /  16.1km/h 63% 0.00in /  0mm
15:54 73.5 °F /  23.1 °C 59.7 °F /  15.4 °C 29.91in /  1012.8hPa NE 6.0mph /  9.7km/h 15.0mph /  24.1km/h 62% 0.00in /  0mm
15:59 74.3 °F /  23.5 °C 60.4 °F /  15.8 °C 29.91in /  1012.8hPa NE 7.0mph /  11.3km/h 15.0mph /  24.1km/h 62% 0.00in /  0mm
16:04 74.0 °F /  23.3 °C 60.6 °F /  15.9 °C 29.90in /  1012.4hPa NE 6.0mph /  9.7km/h 14.0mph /  22.5km/h 63% 0.00in /  0mm
16:09 73.2 °F /  22.9 °C 59.4 °F /  15.2 °C 29.90in /  1012.4hPa NNE 2.0mph /  3.2km/h 18.0mph /  29km/h 62% 0.00in /  0mm
16:14 73.5 °F /  23.1 °C 59.2 °F /  15.1 °C 29.90in /  1012.4hPa NE 6.0mph /  9.7km/h 15.0mph /  24.1km/h 61% 0.00in /  0mm
16:19 73.1 °F /  22.8 °C 59.3 °F /  15.2 °C 29.91in /  1012.8hPa ENE 3.0mph /  4.8km/h 15.0mph /  24.1km/h 62% 0.00in /  0mm
16:24 73.7 °F /  23.2 °C 60.3 °F /  15.7 °C 29.91in /  1012.8hPa NNE 4.0mph /  6.4km/h 12.0mph /  19.3km/h 63% 0.00in /  0mm
16:29 73.1 °F /  22.8 °C 59.8 °F /  15.4 °C 29.91in /  1012.8hPa ENE 10.0mph /  16.1km/h 13.0mph /  20.9km/h 63% 0.00in /  0mm
16:34 73.3 °F /  22.9 °C 59.9 °F /  15.5 °C 29.91in /  1012.8hPa Calm   10.0mph /  16.1km/h 63% 0.00in /  0mm
16:39 73.0 °F /  22.8 °C 58.3 °F /  14.6 °C 29.91in /  1012.8hPa ENE 9.0mph /  14.5km/h 15.0mph /  24.1km/h 60% 0.00in /  0mm
16:44 72.4 °F /  22.4 °C 58.2 °F /  14.6 °C 29.91in /  1012.8hPa ENE 11.0mph /  17.7km/h 16.0mph /  25.7km/h 61% 0.00in /  0mm
16:49 71.7 °F /  22.1 °C 58.9 °F /  14.9 °C 29.91in /  1012.8hPa NE 8.0mph /  12.9km/h 16.0mph /  25.7km/h 64% 0.00in /  0mm
16:54 72.2 °F /  22.3 °C 59.3 °F /  15.2 °C 29.91in /  1012.8hPa NE 5.0mph /  8km/h 15.0mph /  24.1km/h 64% 0.00in /  0mm
16:59 72.0 °F /  22.2 °C 59.2 °F /  15.1 °C 29.91in /  1012.8hPa NNE 4.0mph /  6.4km/h 13.0mph /  20.9km/h 64% 0.00in /  0mm
17:04 71.4 °F /  21.9 °C 58.6 °F /  14.8 °C 29.91in /  1012.8hPa NE 6.0mph /  9.7km/h 14.0mph /  22.5km/h 64% 0.00in /  0mm
17:09 70.8 °F /  21.6 °C 58.4 °F /  14.7 °C 29.91in /  1012.8hPa NNE 3.0mph /  4.8km/h 13.0mph /  20.9km/h 65% 0.00in /  0mm
17:14 70.8 °F /  21.6 °C 58.9 °F /  14.9 °C 29.91in /  1012.8hPa NE 3.0mph /  4.8km/h 11.0mph /  17.7km/h 66% 0.00in /  0mm
17:19 71.1 °F /  21.7 °C 58.7 °F /  14.8 °C 29.91in /  1012.8hPa NE 8.0mph /  12.9km/h 14.0mph /  22.5km/h 65% 0.00in /  0mm
17:24 70.6 °F /  21.4 °C 57.8 °F /  14.3 °C 29.91in /  1012.8hPa NE 11.0mph /  17.7km/h 15.0mph /  24.1km/h 64% 0.00in /  0mm
17:29 70.4 °F /  21.3 °C 58.1 °F /  14.5 °C 29.91in /  1012.8hPa NE 7.0mph /  11.3km/h 16.0mph /  25.7km/h 65% 0.00in /  0mm
17:34 70.1 °F /  21.2 °C 57.4 °F /  14.1 °C 29.91in /  1012.8hPa North 4.0mph /  6.4km/h 15.0mph /  24.1km/h 64% 0.00in /  0mm
17:39 69.7 °F /  20.9 °C 57.4 °F /  14.1 °C 29.91in /  1012.8hPa NE 5.0mph /  8km/h 15.0mph /  24.1km/h 65% 0.00in /  0mm
17:44 69.7 °F /  20.9 °C 57.8 °F /  14.3 °C 29.91in /  1012.8hPa NNE 4.0mph /  6.4km/h 9.0mph /  14.5km/h 66% 0.00in /  0mm
17:49 69.5 °F /  20.8 °C 56.8 °F /  13.8 °C 29.90in /  1012.4hPa NE 5.0mph /  8km/h 9.0mph /  14.5km/h 64% 0.00in /  0mm
17:54 69.4 °F /  20.8 °C 56.7 °F /  13.7 °C 29.90in /  1012.4hPa North 4.0mph /  6.4km/h 11.0mph /  17.7km/h 64% 0.00in /  0mm
17:59 69.1 °F /  20.6 °C 56.8 °F /  13.8 °C 29.90in /  1012.4hPa NE 4.0mph /  6.4km/h 13.0mph /  20.9km/h 65% 0.00in /  0mm
18:04 69.2 °F /  20.7 °C 55.6 °F /  13.1 °C 29.91in /  1012.8hPa NE 7.0mph /  11.3km/h 15.0mph /  24.1km/h 62% 0.00in /  0mm
18:09 69.4 °F /  20.8 °C 55.8 °F /  13.2 °C 29.91in /  1012.8hPa NE 7.0mph /  11.3km/h 15.0mph /  24.1km/h 62% 0.00in /  0mm
18:14 69.4 °F /  20.8 °C 53.5 °F /  11.9 °C 29.90in /  1012.4hPa NE 8.0mph /  12.9km/h 19.0mph /  30.6km/h 57% 0.00in /  0mm
18:19 69.3 °F /  20.7 °C 54.4 °F /  12.4 °C 29.90in /  1012.4hPa NE 8.0mph /  12.9km/h 19.0mph /  30.6km/h 59% 0.00in /  0mm
18:24 69.3 °F /  20.7 °C 52.9 °F /  11.6 °C 29.90in /  1012.4hPa NE 7.0mph /  11.3km/h 14.0mph /  22.5km/h 56% 0.00in /  0mm
18:34 69.0 °F /  20.6 °C 52.6 °F /  11.4 °C 29.91in /  1012.8hPa NE 3.0mph /  4.8km/h 15.0mph /  24.1km/h 56% 0.00in /  0mm
18:39 68.9 °F /  20.5 °C 52.1 °F /  11.2 °C 29.91in /  1012.8hPa NE 3.0mph /  4.8km/h 13.0mph /  20.9km/h 55% 0.00in /  0mm
18:44 69.0 °F /  20.6 °C 52.2 °F /  11.2 °C 29.91in /  1012.8hPa ENE 7.0mph /  11.3km/h 13.0mph /  20.9km/h 55% 0.00in /  0mm
18:49 68.6 °F /  20.3 °C 51.8 °F /  11 °C 29.91in /  1012.8hPa NNE 1.0mph /  1.6km/h 14.0mph /  22.5km/h 55% 0.00in /  0mm
18:54 68.4 °F /  20.2 °C 51.1 °F /  10.6 °C 29.91in /  1012.8hPa ENE 7.0mph /  11.3km/h 15.0mph /  24.1km/h 54% 0.00in /  0mm
18:59 68.5 °F /  20.3 °C 51.7 °F /  10.9 °C 29.91in /  1012.8hPa NE 6.0mph /  9.7km/h 15.0mph /  24.1km/h 55% 0.00in /  0mm
19:04 68.5 °F /  20.3 °C 52.2 °F /  11.2 °C 29.91in /  1012.8hPa NE 6.0mph /  9.7km/h 15.0mph /  24.1km/h 56% 0.00in /  0mm
19:09 68.3 °F /  20.2 °C 51.5 °F /  10.8 °C 29.91in /  1012.8hPa NE 5.0mph /  8km/h 10.0mph /  16.1km/h 55% 0.00in /  0mm
19:14 68.1 °F /  20.1 °C 51.3 °F /  10.7 °C 29.92in /  1013.1hPa NE 10.0mph /  16.1km/h 13.0mph /  20.9km/h 55% 0.00in /  0mm
19:19 67.7 °F /  19.8 °C 51.4 °F /  10.8 °C 29.91in /  1012.8hPa NE 2.0mph /  3.2km/h 10.0mph /  16.1km/h 56% 0.00in /  0mm
19:24 67.6 °F /  19.8 °C 50.9 °F /  10.5 °C 29.92in /  1013.1hPa NNE 3.0mph /  4.8km/h 13.0mph /  20.9km/h 55% 0.00in /  0mm
19:29 67.4 °F /  19.7 °C 51.2 °F /  10.7 °C 29.92in /  1013.1hPa NE 5.0mph /  8km/h 13.0mph /  20.9km/h 56% 0.00in /  0mm
19:34 67.5 °F /  19.7 °C 50.8 °F /  10.4 °C 29.92in /  1013.1hPa NE 5.0mph /  8km/h 13.0mph /  20.9km/h 55% 0.00in /  0mm
19:39 67.6 °F /  19.8 °C 51.3 °F /  10.7 °C 29.92in /  1013.1hPa ENE 9.0mph /  14.5km/h 12.0mph /  19.3km/h 56% 0.00in /  0mm
19:44 67.5 °F /  19.7 °C 50.8 °F /  10.4 °C 29.93in /  1013.4hPa ENE 5.0mph /  8km/h 14.0mph /  22.5km/h 55% 0.00in /  0mm
19:49 67.4 °F /  19.7 °C 50.7 °F /  10.4 °C 29.93in /  1013.4hPa NE 7.0mph /  11.3km/h 13.0mph /  20.9km/h 55% 0.00in /  0mm
19:59 66.9 °F /  19.4 °C 50.7 °F /  10.4 °C 29.93in /  1013.4hPa NE 6.0mph /  9.7km/h 14.0mph /  22.5km/h 56% 0.00in /  0mm
20:04 66.7 °F /  19.3 °C 50.5 °F /  10.3 °C 29.93in /  1013.4hPa ENE 5.0mph /  8km/h 14.0mph /  22.5km/h 56% 0.00in /  0mm
20:09 66.5 °F /  19.2 °C 50.8 °F /  10.4 °C 29.93in /  1013.4hPa NE 5.0mph /  8km/h 10.0mph /  16.1km/h 57% 0.00in /  0mm
20:14 66.4 °F /  19.1 °C 50.7 °F /  10.4 °C 29.93in /  1013.4hPa NE 4.0mph /  6.4km/h 10.0mph /  16.1km/h 57% 0.00in /  0mm
20:19 66.3 °F /  19.1 °C 50.6 °F /  10.3 °C 29.93in /  1013.4hPa NE 3.0mph /  4.8km/h 8.0mph /  12.9km/h 57% 0.00in /  0mm
20:24 66.1 °F /  18.9 °C 50.9 °F /  10.5 °C 29.93in /  1013.4hPa ENE 3.0mph /  4.8km/h 9.0mph /  14.5km/h 58% 0.00in /  0mm
20:29 65.8 °F /  18.8 °C 51.1 °F /  10.6 °C 29.93in /  1013.4hPa ENE 3.0mph /  4.8km/h 9.0mph /  14.5km/h 59% 0.00in /  0mm
20:34 65.5 °F /  18.6 °C 50.8 °F /  10.4 °C 29.93in /  1013.4hPa NE 2.0mph /  3.2km/h 6.0mph /  9.7km/h 59% 0.00in /  0mm
20:39 65.4 °F /  18.6 °C 51.1 °F /  10.6 °C 29.93in /  1013.4hPa NE 1.0mph /  1.6km/h 6.0mph /  9.7km/h 60% 0.00in /  0mm
20:44 64.9 °F /  18.3 °C 51.1 °F /  10.6 °C 29.93in /  1013.4hPa Calm   3.0mph /  4.8km/h 61% 0.00in /  0mm
20:49 64.6 °F /  18.1 °C 51.3 °F /  10.7 °C 29.93in /  1013.4hPa Calm   3.0mph /  4.8km/h 62% 0.00in /  0mm
20:54 64.1 °F /  17.8 °C 51.2 °F /  10.7 °C 29.93in /  1013.4hPa Calm   3.0mph /  4.8km/h 63% 0.00in /  0mm
20:59 63.9 °F /  17.7 °C 51.1 °F /  10.6 °C 29.93in /  1013.4hPa Calm   3.0mph /  4.8km/h 63% 0.00in /  0mm
21:04 63.8 °F /  17.7 °C 51.0 °F /  10.6 °C 29.94in /  1013.8hPa NE 1.0mph /  1.6km/h 3.0mph /  4.8km/h 63% 0.00in /  0mm
21:09 63.4 °F /  17.4 °C 51.0 °F /  10.6 °C 29.94in /  1013.8hPa Calm   1.0mph /  1.6km/h 64% 0.00in /  0mm
21:14 63.2 °F /  17.3 °C 51.2 °F /  10.7 °C 29.94in /  1013.8hPa Calm   2.0mph /  3.2km/h 65% 0.00in /  0mm
21:19 63.1 °F /  17.3 °C 51.1 °F /  10.6 °C 29.94in /  1013.8hPa Calm     65% 0.00in /  0mm
21:24 62.8 °F /  17.1 °C 50.9 °F /  10.5 °C 29.94in /  1013.8hPa Calm     65% 0.00in /  0mm
21:29 62.5 °F /  16.9 °C 51.0 °F /  10.6 °C 29.94in /  1013.8hPa Calm     66% 0.00in /  0mm
21:34 62.3 °F /  16.8 °C 51.2 °F /  10.7 °C 29.94in /  1013.8hPa Calm     67% 0.00in /  0mm
21:39 62.1 °F /  16.7 °C 51.0 °F /  10.6 °C 29.94in /  1013.8hPa Calm     67% 0.00in /  0mm
21:44 61.9 °F /  16.6 °C 51.2 °F /  10.7 °C 29.94in /  1013.8hPa Calm     68% 0.00in /  0mm
21:49 61.8 °F /  16.6 °C 51.1 °F /  10.6 °C 29.94in /  1013.8hPa Calm     68% 0.00in /  0mm
21:54 61.7 °F /  16.5 °C 51.4 °F /  10.8 °C 29.94in /  1013.8hPa Calm   1.0mph /  1.6km/h 69% 0.00in /  0mm
21:59 61.7 °F /  16.5 °C 51.4 °F /  10.8 °C 29.94in /  1013.8hPa Calm   1.0mph /  1.6km/h 69% 0.00in /  0mm
22:04 61.6 °F /  16.4 °C 50.9 °F /  10.5 °C 29.94in /  1013.8hPa Calm   1.0mph /  1.6km/h 68% 0.00in /  0mm
22:09 61.4 °F /  16.3 °C 51.1 °F /  10.6 °C 29.94in /  1013.8hPa Calm     69% 0.00in /  0mm
22:14 61.4 °F /  16.3 °C 51.1 °F /  10.6 °C 29.94in /  1013.8hPa Calm     69% 0.00in /  0mm
22:19 61.1 °F /  16.2 °C 51.2 °F /  10.7 °C 29.94in /  1013.8hPa Calm     70% 0.00in /  0mm
22:24 60.9 °F /  16.1 °C 51.0 °F /  10.6 °C 29.94in /  1013.8hPa Calm     70% 0.00in /  0mm
22:29 60.9 °F /  16.1 °C 51.4 °F /  10.8 °C 29.94in /  1013.8hPa Calm     71% 0.00in /  0mm
22:34 60.7 °F /  15.9 °C 51.2 °F /  10.7 °C 29.94in /  1013.8hPa Calm     71% 0.00in /  0mm
22:39 60.7 °F /  15.9 °C 51.2 °F /  10.7 °C 29.94in /  1013.8hPa Calm     71% 0.00in /  0mm
22:44 60.8 °F /  16 °C 51.0 °F /  10.6 °C 29.95in /  1014.1hPa Calm     70% 0.00in /  0mm
22:54 60.1 °F /  15.6 °C 51.0 °F /  10.6 °C 29.94in /  1013.8hPa Calm     72% 0.00in /  0mm
22:59 60.2 °F /  15.7 °C 51.1 °F /  10.6 °C 29.94in /  1013.8hPa Calm     72% 0.00in /  0mm
23:04 60.1 °F /  15.6 °C 51.0 °F /  10.6 °C 29.94in /  1013.8hPa Calm     72% 0.00in /  0mm
23:09 59.9 °F /  15.5 °C 50.8 °F /  10.4 °C 29.94in /  1013.8hPa Calm     72% 0.00in /  0mm
23:14 59.7 °F /  15.4 °C 51.4 °F /  10.8 °C 29.94in /  1013.8hPa Calm     74% 0.00in /  0mm
23:19 59.6 °F /  15.3 °C 51.3 °F /  10.7 °C 29.94in /  1013.8hPa Calm     74% 0.00in /  0mm
23:24 59.6 °F /  15.3 °C 51.3 °F /  10.7 °C 29.94in /  1013.8hPa Calm     74% 0.00in /  0mm
23:29 59.4 °F /  15.2 °C 51.1 °F /  10.6 °C 29.94in /  1013.8hPa Calm     74% 0.00in /  0mm
23:34 59.7 °F /  15.4 °C 51.4 °F /  10.8 °C 29.94in /  1013.8hPa Calm     74% 0.00in /  0mm
23:39 59.7 °F /  15.4 °C 51.4 °F /  10.8 °C 29.94in /  1013.8hPa Calm     74% 0.00in /  0mm
23:44 59.5 °F /  15.3 °C 51.6 °F /  10.9 °C 29.94in /  1013.8hPa Calm     75% 0.00in /  0mm
23:49 59.3 °F /  15.2 °C 51.4 °F /  10.8 °C 29.94in /  1013.8hPa Calm     75% 0.00in /  0mm
23:54 59.2 °F /  15.1 °C 51.6 °F /  10.9 °C 29.94in /  1013.8hPa Calm     76% 0.00in /  0mm
23:59 59.2 °F /  15.1 °C 51.6 °F /  10.9 °C 29.94in /  1013.8hPa Calm     76% 0.00in /  0mm
Buffalo, New York, USA
Compliments of Weather Underground - 2.25 mb